sensor_id;sensor_type;location;lat;lon;timestamp;P1;durP1;ratioP1;P2;durP2;ratioP2
2029;SDS011;1020;48.854;8.830;2023-08-01T00:01:46;4.17;;;3.23;;
2029;SDS011;1020;48.854;8.830;2023-08-01T00:04:15;3.70;;;3.33;;
2029;SDS011;1020;48.854;8.830;2023-08-01T00:06:42;4.23;;;3.93;;
2029;SDS011;1020;48.854;8.830;2023-08-01T00:09:09;3.50;;;3.20;;
2029;SDS011;1020;48.854;8.830;2023-08-01T00:11:35;3.47;;;3.17;;
2029;SDS011;1020;48.854;8.830;2023-08-01T00:14:02;7.00;;;3.83;;
2029;SDS011;1020;48.854;8.830;2023-08-01T00:16:29;4.30;;;3.30;;
2029;SDS011;1020;48.854;8.830;2023-08-01T00:18:57;5.83;;;4.37;;
2029;SDS011;1020;48.854;8.830;2023-08-01T00:21:25;5.77;;;4.10;;
2029;SDS011;1020;48.854;8.830;2023-08-01T00:23:52;3.73;;;3.43;;
2029;SDS011;1020;48.854;8.830;2023-08-01T00:26:20;4.17;;;3.80;;
2029;SDS011;1020;48.854;8.830;2023-08-01T00:28:46;5.73;;;3.37;;
2029;SDS011;1020;48.854;8.830;2023-08-01T00:31:13;4.63;;;3.57;;
2029;SDS011;1020;48.854;8.830;2023-08-01T00:33:40;4.83;;;3.50;;
2029;SDS011;1020;48.854;8.830;2023-08-01T00:36:07;4.10;;;3.40;;
2029;SDS011;1020;48.854;8.830;2023-08-01T00:38:37;4.40;;;3.67;;
2029;SDS011;1020;48.854;8.830;2023-08-01T00:41:04;4.27;;;3.40;;
2029;SDS011;1020;48.854;8.830;2023-08-01T00:43:31;3.80;;;3.50;;
2029;SDS011;1020;48.854;8.830;2023-08-01T00:45:58;4.67;;;3.50;;
2029;SDS011;1020;48.854;8.830;2023-08-01T00:48:26;3.70;;;3.33;;
2029;SDS011;1020;48.854;8.830;2023-08-01T00:50:54;3.90;;;3.57;;
2029;SDS011;1020;48.854;8.830;2023-08-01T00:53:21;3.77;;;3.47;;
2029;SDS011;1020;48.854;8.830;2023-08-01T00:55:50;3.67;;;3.20;;
2029;SDS011;1020;48.854;8.830;2023-08-01T00:58:18;4.20;;;3.53;;
2029;SDS011;1020;48.854;8.830;2023-08-01T01:00:45;4.03;;;3.60;;
2029;SDS011;1020;48.854;8.830;2023-08-01T01:03:13;7.40;;;3.30;;
2029;SDS011;1020;48.854;8.830;2023-08-01T01:05:42;8.20;;;3.80;;
2029;SDS011;1020;48.854;8.830;2023-08-01T01:08:19;4.47;;;3.40;;
2029;SDS011;1020;48.854;8.830;2023-08-01T01:10:46;3.50;;;3.20;;
2029;SDS011;1020;48.854;8.830;2023-08-01T01:13:14;4.00;;;3.10;;
2029;SDS011;1020;48.854;8.830;2023-08-01T01:15:41;4.07;;;3.60;;
2029;SDS011;1020;48.854;8.830;2023-08-01T01:18:08;4.50;;;4.07;;
2029;SDS011;1020;48.854;8.830;2023-08-01T01:20:36;4.17;;;3.40;;
2029;SDS011;1020;48.854;8.830;2023-08-01T01:23:03;6.03;;;3.40;;
2029;SDS011;1020;48.854;8.830;2023-08-01T01:25:31;3.87;;;3.57;;
2029;SDS011;1020;48.854;8.830;2023-08-01T01:27:59;8.63;;;4.73;;
2029;SDS011;1020;48.854;8.830;2023-08-01T01:30:27;6.20;;;3.80;;
2029;SDS011;1020;48.854;8.830;2023-08-01T01:32:55;4.90;;;4.40;;
2029;SDS011;1020;48.854;8.830;2023-08-01T01:35:23;6.20;;;4.30;;
2029;SDS011;1020;48.854;8.830;2023-08-01T01:37:51;6.07;;;4.37;;
2029;SDS011;1020;48.854;8.830;2023-08-01T01:40:18;4.20;;;3.80;;
2029;SDS011;1020;48.854;8.830;2023-08-01T01:42:45;5.10;;;4.60;;
2029;SDS011;1020;48.854;8.830;2023-08-01T01:45:13;5.87;;;4.90;;
2029;SDS011;1020;48.854;8.830;2023-08-01T01:47:40;5.20;;;4.70;;
2029;SDS011;1020;48.854;8.830;2023-08-01T01:50:07;5.17;;;4.60;;
2029;SDS011;1020;48.854;8.830;2023-08-01T01:52:34;7.40;;;4.60;;
2029;SDS011;1020;48.854;8.830;2023-08-01T01:55:02;4.37;;;3.97;;
2029;SDS011;1020;48.854;8.830;2023-08-01T01:57:29;5.30;;;4.80;;
2029;SDS011;1020;48.854;8.830;2023-08-01T01:59:56;5.20;;;4.50;;
2029;SDS011;1020;48.854;8.830;2023-08-01T02:02:22;5.57;;;4.90;;
2029;SDS011;1020;48.854;8.830;2023-08-01T02:04:49;5.30;;;4.40;;
2029;SDS011;1020;48.854;8.830;2023-08-01T02:07:16;5.17;;;4.30;;
2029;SDS011;1020;48.854;8.830;2023-08-01T02:09:43;5.37;;;4.87;;
2029;SDS011;1020;48.854;8.830;2023-08-01T02:12:12;5.20;;;4.70;;
2029;SDS011;1020;48.854;8.830;2023-08-01T02:14:39;6.20;;;5.00;;
2029;SDS011;1020;48.854;8.830;2023-08-01T02:17:06;7.20;;;4.63;;
2029;SDS011;1020;48.854;8.830;2023-08-01T02:19:33;4.70;;;4.30;;
2029;SDS011;1020;48.854;8.830;2023-08-01T02:22:00;5.30;;;4.33;;
2029;SDS011;1020;48.854;8.830;2023-08-01T02:24:27;4.93;;;4.43;;
2029;SDS011;1020;48.854;8.830;2023-08-01T02:26:54;4.90;;;4.03;;
2029;SDS011;1020;48.854;8.830;2023-08-01T02:29:22;5.73;;;4.80;;
2029;SDS011;1020;48.854;8.830;2023-08-01T02:31:48;6.90;;;4.87;;
2029;SDS011;1020;48.854;8.830;2023-08-01T02:34:15;5.00;;;4.60;;
2029;SDS011;1020;48.854;8.830;2023-08-01T02:36:42;6.03;;;4.50;;
2029;SDS011;1020;48.854;8.830;2023-08-01T02:39:09;4.57;;;4.00;;
2029;SDS011;1020;48.854;8.830;2023-08-01T02:41:35;4.47;;;4.07;;
2029;SDS011;1020;48.854;8.830;2023-08-01T02:44:02;5.60;;;4.80;;
2029;SDS011;1020;48.854;8.830;2023-08-01T02:46:30;5.60;;;4.60;;
2029;SDS011;1020;48.854;8.830;2023-08-01T02:48:57;4.90;;;4.20;;
2029;SDS011;1020;48.854;8.830;2023-08-01T02:51:24;5.23;;;4.40;;
2029;SDS011;1020;48.854;8.830;2023-08-01T02:53:51;5.20;;;4.70;;
2029;SDS011;1020;48.854;8.830;2023-08-01T02:56:17;5.63;;;4.07;;
2029;SDS011;1020;48.854;8.830;2023-08-01T02:58:44;4.53;;;4.13;;
2029;SDS011;1020;48.854;8.830;2023-08-01T03:01:11;4.93;;;4.43;;
2029;SDS011;1020;48.854;8.830;2023-08-01T03:03:39;4.60;;;3.60;;
2029;SDS011;1020;48.854;8.830;2023-08-01T03:06:06;5.27;;;3.67;;
2029;SDS011;1020;48.854;8.830;2023-08-01T03:08:33;4.77;;;4.37;;
2029;SDS011;1020;48.854;8.830;2023-08-01T03:11:00;4.17;;;3.77;;
2029;SDS011;1020;48.854;8.830;2023-08-01T03:13:27;4.13;;;3.20;;
2029;SDS011;1020;48.854;8.830;2023-08-01T03:15:54;3.20;;;2.90;;
2029;SDS011;1020;48.854;8.830;2023-08-01T03:18:21;3.70;;;3.40;;
2029;SDS011;1020;48.854;8.830;2023-08-01T03:20:49;3.60;;;2.90;;
2029;SDS011;1020;48.854;8.830;2023-08-01T03:23:16;5.90;;;3.20;;
2029;SDS011;1020;48.854;8.830;2023-08-01T03:25:43;5.07;;;3.73;;
2029;SDS011;1020;48.854;8.830;2023-08-01T03:28:10;4.10;;;3.40;;
2029;SDS011;1020;48.854;8.830;2023-08-01T03:30:36;3.83;;;3.30;;
2029;SDS011;1020;48.854;8.830;2023-08-01T03:33:04;4.87;;;4.37;;
2029;SDS011;1020;48.854;8.830;2023-08-01T03:35:31;3.90;;;3.10;;
2029;SDS011;1020;48.854;8.830;2023-08-01T03:37:59;5.13;;;3.13;;
2029;SDS011;1020;48.854;8.830;2023-08-01T03:40:26;3.60;;;3.30;;
2029;SDS011;1020;48.854;8.830;2023-08-01T03:42:52;3.37;;;3.07;;
2029;SDS011;1020;48.854;8.830;2023-08-01T03:45:19;3.37;;;3.07;;
2029;SDS011;1020;48.854;8.830;2023-08-01T03:47:46;4.10;;;2.90;;
2029;SDS011;1020;48.854;8.830;2023-08-01T03:50:13;4.77;;;3.50;;
2029;SDS011;1020;48.854;8.830;2023-08-01T03:52:40;5.67;;;3.50;;
2029;SDS011;1020;48.854;8.830;2023-08-01T03:55:08;4.63;;;3.03;;
2029;SDS011;1020;48.854;8.830;2023-08-01T03:57:35;3.23;;;2.93;;
2029;SDS011;1020;48.854;8.830;2023-08-01T04:00:03;3.87;;;3.50;;
2029;SDS011;1020;48.854;8.830;2023-08-01T04:02:31;5.00;;;2.90;;
2029;SDS011;1020;48.854;8.830;2023-08-01T04:04:58;2.57;;;2.37;;
2029;SDS011;1020;48.854;8.830;2023-08-01T04:07:25;3.13;;;2.83;;
2029;SDS011;1020;48.854;8.830;2023-08-01T04:09:51;3.23;;;2.90;;
2029;SDS011;1020;48.854;8.830;2023-08-01T04:12:20;3.17;;;2.87;;
2029;SDS011;1020;48.854;8.830;2023-08-01T04:14:47;2.80;;;2.60;;
2029;SDS011;1020;48.854;8.830;2023-08-01T04:17:13;4.17;;;2.90;;
2029;SDS011;1020;48.854;8.830;2023-08-01T04:19:40;4.70;;;3.13;;
2029;SDS011;1020;48.854;8.830;2023-08-01T04:22:07;3.23;;;2.93;;
2029;SDS011;1020;48.854;8.830;2023-08-01T04:24:34;3.57;;;2.60;;
2029;SDS011;1020;48.854;8.830;2023-08-01T04:27:01;4.00;;;3.20;;
2029;SDS011;1020;48.854;8.830;2023-08-01T04:29:29;3.20;;;2.90;;
2029;SDS011;1020;48.854;8.830;2023-08-01T04:31:56;5.20;;;3.50;;
2029;SDS011;1020;48.854;8.830;2023-08-01T04:34:23;4.23;;;3.07;;
2029;SDS011;1020;48.854;8.830;2023-08-01T04:36:50;4.87;;;3.37;;
2029;SDS011;1020;48.854;8.830;2023-08-01T04:39:17;3.47;;;3.10;;
2029;SDS011;1020;48.854;8.830;2023-08-01T04:41:44;3.70;;;2.90;;
2029;SDS011;1020;48.854;8.830;2023-08-01T04:44:10;2.93;;;2.63;;
2029;SDS011;1020;48.854;8.830;2023-08-01T04:46:39;3.43;;;3.00;;
2029;SDS011;1020;48.854;8.830;2023-08-01T04:49:05;4.40;;;2.83;;
2029;SDS011;1020;48.854;8.830;2023-08-01T04:51:32;2.87;;;2.43;;
2029;SDS011;1020;48.854;8.830;2023-08-01T04:53:59;3.27;;;2.67;;
2029;SDS011;1020;48.854;8.830;2023-08-01T04:56:26;2.50;;;2.27;;
2029;SDS011;1020;48.854;8.830;2023-08-01T04:58:52;4.37;;;2.47;;
2029;SDS011;1020;48.854;8.830;2023-08-01T05:01:19;2.07;;;1.80;;
2029;SDS011;1020;48.854;8.830;2023-08-01T05:03:47;3.63;;;2.33;;
2029;SDS011;1020;48.854;8.830;2023-08-01T05:06:14;2.50;;;2.30;;
2029;SDS011;1020;48.854;8.830;2023-08-01T05:08:41;2.63;;;2.20;;
2029;SDS011;1020;48.854;8.830;2023-08-01T05:11:07;3.33;;;2.33;;
2029;SDS011;1020;48.854;8.830;2023-08-01T05:13:34;2.80;;;2.60;;
2029;SDS011;1020;48.854;8.830;2023-08-01T05:16:01;3.03;;;2.73;;
2029;SDS011;1020;48.854;8.830;2023-08-01T05:18:28;2.70;;;2.50;;
2029;SDS011;1020;48.854;8.830;2023-08-01T05:20:56;3.73;;;3.43;;
2029;SDS011;1020;48.854;8.830;2023-08-01T05:23:23;2.50;;;2.30;;
2029;SDS011;1020;48.854;8.830;2023-08-01T05:25:49;3.03;;;2.83;;
2029;SDS011;1020;48.854;8.830;2023-08-01T05:28:16;3.90;;;2.90;;
2029;SDS011;1020;48.854;8.830;2023-08-01T05:30:43;6.40;;;3.30;;
2029;SDS011;1020;48.854;8.830;2023-08-01T05:33:10;3.30;;;2.80;;
2029;SDS011;1020;48.854;8.830;2023-08-01T05:35:37;3.07;;;2.70;;
2029;SDS011;1020;48.854;8.830;2023-08-01T05:38:06;2.63;;;2.43;;
2029;SDS011;1020;48.854;8.830;2023-08-01T05:40:33;3.30;;;3.00;;
2029;SDS011;1020;48.854;8.830;2023-08-01T05:43:00;2.43;;;2.23;;
2029;SDS011;1020;48.854;8.830;2023-08-01T05:45:29;2.80;;;2.57;;
2029;SDS011;1020;48.854;8.830;2023-08-01T05:47:55;3.27;;;2.87;;
2029;SDS011;1020;48.854;8.830;2023-08-01T05:50:22;3.57;;;3.10;;
2029;SDS011;1020;48.854;8.830;2023-08-01T05:52:49;3.13;;;2.93;;
2029;SDS011;1020;48.854;8.830;2023-08-01T05:55:17;5.10;;;3.50;;
2029;SDS011;1020;48.854;8.830;2023-08-01T05:57:44;3.77;;;2.70;;
2029;SDS011;1020;48.854;8.830;2023-08-01T06:00:11;3.40;;;3.10;;
2029;SDS011;1020;48.854;8.830;2023-08-01T06:02:39;3.50;;;3.20;;
2029;SDS011;1020;48.854;8.830;2023-08-01T06:05:06;4.50;;;3.27;;
2029;SDS011;1020;48.854;8.830;2023-08-01T06:07:33;3.50;;;3.20;;
2029;SDS011;1020;48.854;8.830;2023-08-01T06:10:00;4.23;;;3.80;;
2029;SDS011;1020;48.854;8.830;2023-08-01T06:12:28;3.50;;;3.20;;
2029;SDS011;1020;48.854;8.830;2023-08-01T06:14:55;5.83;;;4.10;;
2029;SDS011;1020;48.854;8.830;2023-08-01T06:17:21;4.50;;;4.10;;
2029;SDS011;1020;48.854;8.830;2023-08-01T06:19:48;4.60;;;3.60;;
2029;SDS011;1020;48.854;8.830;2023-08-01T06:22:16;4.63;;;3.53;;
2029;SDS011;1020;48.854;8.830;2023-08-01T06:24:43;3.57;;;3.27;;
2029;SDS011;1020;48.854;8.830;2023-08-01T06:27:09;4.33;;;3.90;;
2029;SDS011;1020;48.854;8.830;2023-08-01T06:29:37;4.20;;;3.07;;
2029;SDS011;1020;48.854;8.830;2023-08-01T06:32:05;6.30;;;4.40;;
2029;SDS011;1020;48.854;8.830;2023-08-01T06:34:32;5.43;;;3.90;;
2029;SDS011;1020;48.854;8.830;2023-08-01T06:36:58;6.87;;;4.23;;
2029;SDS011;1020;48.854;8.830;2023-08-01T06:39:25;6.13;;;4.47;;
2029;SDS011;1020;48.854;8.830;2023-08-01T06:41:52;5.73;;;5.20;;
2029;SDS011;1020;48.854;8.830;2023-08-01T06:44:19;5.53;;;4.80;;
2029;SDS011;1020;48.854;8.830;2023-08-01T06:46:47;5.20;;;4.70;;
2029;SDS011;1020;48.854;8.830;2023-08-01T06:49:13;4.70;;;4.30;;
2029;SDS011;1020;48.854;8.830;2023-08-01T06:51:40;6.90;;;5.23;;
2029;SDS011;1020;48.854;8.830;2023-08-01T06:54:07;6.53;;;4.50;;
2029;SDS011;1020;48.854;8.830;2023-08-01T06:56:34;4.73;;;4.30;;
2029;SDS011;1020;48.854;8.830;2023-08-01T06:59:01;9.40;;;5.20;;
2029;SDS011;1020;48.854;8.830;2023-08-01T07:01:28;5.63;;;5.00;;
2029;SDS011;1020;48.854;8.830;2023-08-01T07:03:57;6.03;;;5.50;;
2029;SDS011;1020;48.854;8.830;2023-08-01T07:06:23;5.70;;;4.73;;
2029;SDS011;1020;48.854;8.830;2023-08-01T07:08:50;5.83;;;4.43;;
2029;SDS011;1020;48.854;8.830;2023-08-01T07:11:17;5.87;;;4.20;;
2029;SDS011;1020;48.854;8.830;2023-08-01T07:13:44;6.90;;;4.70;;
2029;SDS011;1020;48.854;8.830;2023-08-01T07:16:11;6.97;;;5.17;;
2029;SDS011;1020;48.854;8.830;2023-08-01T07:18:37;9.83;;;5.53;;
2029;SDS011;1020;48.854;8.830;2023-08-01T07:21:05;5.77;;;4.30;;
2029;SDS011;1020;48.854;8.830;2023-08-01T07:23:34;5.30;;;4.77;;
2029;SDS011;1020;48.854;8.830;2023-08-01T07:26:01;4.10;;;3.80;;
2029;SDS011;1020;48.854;8.830;2023-08-01T07:28:29;5.00;;;4.40;;
2029;SDS011;1020;48.854;8.830;2023-08-01T07:30:59;5.60;;;5.10;;
2029;SDS011;1020;48.854;8.830;2023-08-01T07:33:26;6.47;;;4.57;;
2029;SDS011;1020;48.854;8.830;2023-08-01T07:35:53;6.57;;;5.20;;
2029;SDS011;1020;48.854;8.830;2023-08-01T07:38:21;5.70;;;5.03;;
2029;SDS011;1020;48.854;8.830;2023-08-01T07:40:48;8.00;;;5.33;;
2029;SDS011;1020;48.854;8.830;2023-08-01T07:43:15;5.13;;;4.70;;
2029;SDS011;1020;48.854;8.830;2023-08-01T07:45:42;4.97;;;4.17;;
2029;SDS011;1020;48.854;8.830;2023-08-01T07:48:09;5.00;;;4.50;;
2029;SDS011;1020;48.854;8.830;2023-08-01T07:50:35;5.90;;;4.10;;
2029;SDS011;1020;48.854;8.830;2023-08-01T07:53:02;5.73;;;4.73;;
2029;SDS011;1020;48.854;8.830;2023-08-01T07:55:34;5.07;;;4.57;;
2029;SDS011;1020;48.854;8.830;2023-08-01T07:58:01;5.23;;;4.73;;
2029;SDS011;1020;48.854;8.830;2023-08-01T08:00:28;5.83;;;5.20;;
2029;SDS011;1020;48.854;8.830;2023-08-01T08:02:54;5.30;;;4.80;;
2029;SDS011;1020;48.854;8.830;2023-08-01T08:05:21;3.90;;;3.60;;
2029;SDS011;1020;48.854;8.830;2023-08-01T08:07:48;4.20;;;3.77;;
2029;SDS011;1020;48.854;8.830;2023-08-01T08:10:14;3.87;;;3.57;;
2029;SDS011;1020;48.854;8.830;2023-08-01T08:12:43;4.13;;;3.60;;
2029;SDS011;1020;48.854;8.830;2023-08-01T08:15:09;3.97;;;3.67;;
2029;SDS011;1020;48.854;8.830;2023-08-01T08:17:38;3.17;;;2.87;;
2029;SDS011;1020;48.854;8.830;2023-08-01T08:20:05;3.53;;;3.20;;
2029;SDS011;1020;48.854;8.830;2023-08-01T08:22:33;3.83;;;3.27;;
2029;SDS011;1020;48.854;8.830;2023-08-01T08:25:00;2.23;;;2.13;;
2029;SDS011;1020;48.854;8.830;2023-08-01T08:27:26;2.87;;;2.23;;
2029;SDS011;1020;48.854;8.830;2023-08-01T08:29:54;2.77;;;2.57;;
2029;SDS011;1020;48.854;8.830;2023-08-01T08:32:21;2.60;;;2.40;;
2029;SDS011;1020;48.854;8.830;2023-08-01T08:34:48;2.57;;;2.10;;
2029;SDS011;1020;48.854;8.830;2023-08-01T08:37:15;2.10;;;2.00;;
2029;SDS011;1020;48.854;8.830;2023-08-01T08:39:41;1.97;;;1.83;;
2029;SDS011;1020;48.854;8.830;2023-08-01T08:42:08;1.80;;;1.70;;
2029;SDS011;1020;48.854;8.830;2023-08-01T08:44:39;2.07;;;1.87;;
2029;SDS011;1020;48.854;8.830;2023-08-01T08:47:10;2.23;;;1.50;;
2029;SDS011;1020;48.854;8.830;2023-08-01T08:49:38;2.93;;;1.83;;
2029;SDS011;1020;48.854;8.830;2023-08-01T08:52:06;2.03;;;1.83;;
2029;SDS011;1020;48.854;8.830;2023-08-01T08:54:34;0.90;;;0.80;;
2029;SDS011;1020;48.854;8.830;2023-08-01T08:57:04;1.27;;;1.17;;
2029;SDS011;1020;48.854;8.830;2023-08-01T08:59:31;0.90;;;0.90;;
2029;SDS011;1020;48.854;8.830;2023-08-01T09:01:59;0.93;;;0.93;;
2029;SDS011;1020;48.854;8.830;2023-08-01T09:04:27;1.10;;;1.00;;
2029;SDS011;1020;48.854;8.830;2023-08-01T09:06:55;0.80;;;0.80;;
2029;SDS011;1020;48.854;8.830;2023-08-01T09:09:26;0.80;;;0.80;;
2029;SDS011;1020;48.854;8.830;2023-08-01T09:11:53;0.73;;;0.73;;
2029;SDS011;1020;48.854;8.830;2023-08-01T09:14:21;1.20;;;0.77;;
2029;SDS011;1020;48.854;8.830;2023-08-01T09:16:48;0.73;;;0.73;;
2029;SDS011;1020;48.854;8.830;2023-08-01T09:19:16;1.07;;;1.00;;
2029;SDS011;1020;48.854;8.830;2023-08-01T09:21:45;0.67;;;0.60;;
2029;SDS011;1020;48.854;8.830;2023-08-01T09:24:13;1.37;;;0.50;;
2029;SDS011;1020;48.854;8.830;2023-08-01T09:26:41;0.50;;;0.40;;
2029;SDS011;1020;48.854;8.830;2023-08-01T09:29:08;0.63;;;0.50;;
2029;SDS011;1020;48.854;8.830;2023-08-01T09:31:35;0.60;;;0.60;;
2029;SDS011;1020;48.854;8.830;2023-08-01T09:34:04;0.80;;;0.60;;
2029;SDS011;1020;48.854;8.830;2023-08-01T09:36:44;0.53;;;0.50;;
2029;SDS011;1020;48.854;8.830;2023-08-01T09:39:15;0.30;;;0.30;;
2029;SDS011;1020;48.854;8.830;2023-08-01T09:41:44;0.50;;;0.50;;
2029;SDS011;1020;48.854;8.830;2023-08-01T09:44:11;0.70;;;0.70;;
2029;SDS011;1020;48.854;8.830;2023-08-01T09:46:38;0.93;;;0.50;;
2029;SDS011;1020;48.854;8.830;2023-08-01T09:49:08;0.77;;;0.40;;
2029;SDS011;1020;48.854;8.830;2023-08-01T09:51:46;0.50;;;0.50;;
2029;SDS011;1020;48.854;8.830;2023-08-01T09:54:14;1.27;;;1.07;;
2029;SDS011;1020;48.854;8.830;2023-08-01T09:56:41;1.03;;;0.90;;
2029;SDS011;1020;48.854;8.830;2023-08-01T09:59:11;2.73;;;0.70;;
2029;SDS011;1020;48.854;8.830;2023-08-01T10:01:41;0.80;;;0.80;;
2029;SDS011;1020;48.854;8.830;2023-08-01T10:04:10;0.70;;;0.70;;
2029;SDS011;1020;48.854;8.830;2023-08-01T10:06:38;0.90;;;0.90;;
2029;SDS011;1020;48.854;8.830;2023-08-01T10:09:12;1.53;;;0.67;;
2029;SDS011;1020;48.854;8.830;2023-08-01T10:11:41;0.60;;;0.60;;
2029;SDS011;1020;48.854;8.830;2023-08-01T10:14:09;1.10;;;1.00;;
2029;SDS011;1020;48.854;8.830;2023-08-01T10:16:37;0.50;;;0.50;;
2029;SDS011;1020;48.854;8.830;2023-08-01T10:19:06;0.80;;;0.80;;
2029;SDS011;1020;48.854;8.830;2023-08-01T10:21:33;1.10;;;1.00;;
2029;SDS011;1020;48.854;8.830;2023-08-01T10:24:01;0.73;;;0.70;;
2029;SDS011;1020;48.854;8.830;2023-08-01T10:26:32;0.70;;;0.57;;
2029;SDS011;1020;48.854;8.830;2023-08-01T10:29:00;1.17;;;0.90;;
2029;SDS011;1020;48.854;8.830;2023-08-01T10:31:27;0.50;;;0.50;;
2029;SDS011;1020;48.854;8.830;2023-08-01T10:34:03;1.37;;;0.97;;
2029;SDS011;1020;48.854;8.830;2023-08-01T10:36:31;1.73;;;1.63;;
2029;SDS011;1020;48.854;8.830;2023-08-01T10:38:59;0.80;;;0.70;;
2029;SDS011;1020;48.854;8.830;2023-08-01T10:41:28;1.10;;;1.00;;
2029;SDS011;1020;48.854;8.830;2023-08-01T10:44:07;1.00;;;0.90;;
2029;SDS011;1020;48.854;8.830;2023-08-01T10:46:45;0.70;;;0.70;;
2029;SDS011;1020;48.854;8.830;2023-08-01T10:49:12;1.37;;;0.83;;
2029;SDS011;1020;48.854;8.830;2023-08-01T10:51:39;0.67;;;0.67;;
2029;SDS011;1020;48.854;8.830;2023-08-01T10:54:06;1.00;;;0.90;;
2029;SDS011;1020;48.854;8.830;2023-08-01T10:56:44;0.87;;;0.87;;
2029;SDS011;1020;48.854;8.830;2023-08-01T10:59:12;0.97;;;0.87;;
2029;SDS011;1020;48.854;8.830;2023-08-01T11:01:43;0.80;;;0.80;;
2029;SDS011;1020;48.854;8.830;2023-08-01T11:04:13;1.00;;;1.00;;
2029;SDS011;1020;48.854;8.830;2023-08-01T11:06:44;1.30;;;1.20;;
2029;SDS011;1020;48.854;8.830;2023-08-01T11:09:18;1.60;;;0.80;;
2029;SDS011;1020;48.854;8.830;2023-08-01T11:11:47;1.07;;;1.07;;
2029;SDS011;1020;48.854;8.830;2023-08-01T11:14:16;0.93;;;0.80;;
2029;SDS011;1020;48.854;8.830;2023-08-01T11:16:46;1.63;;;1.50;;
2029;SDS011;1020;48.854;8.830;2023-08-01T11:19:23;2.00;;;1.00;;
2029;SDS011;1020;48.854;8.830;2023-08-01T11:21:50;1.00;;;0.80;;
2029;SDS011;1020;48.854;8.830;2023-08-01T11:24:18;1.23;;;1.17;;
2029;SDS011;1020;48.854;8.830;2023-08-01T11:26:46;1.53;;;1.07;;
2029;SDS011;1020;48.854;8.830;2023-08-01T11:29:14;2.90;;;0.90;;
2029;SDS011;1020;48.854;8.830;2023-08-01T11:31:52;1.50;;;1.23;;
2029;SDS011;1020;48.854;8.830;2023-08-01T11:34:20;3.03;;;1.40;;
2029;SDS011;1020;48.854;8.830;2023-08-01T11:36:47;1.20;;;1.10;;
2029;SDS011;1020;48.854;8.830;2023-08-01T11:39:15;2.13;;;1.17;;
2029;SDS011;1020;48.854;8.830;2023-08-01T11:44:14;2.10;;;1.17;;
2029;SDS011;1020;48.854;8.830;2023-08-01T11:46:41;1.20;;;1.20;;
2029;SDS011;1020;48.854;8.830;2023-08-01T11:49:09;1.30;;;1.20;;
2029;SDS011;1020;48.854;8.830;2023-08-01T11:51:39;1.50;;;1.20;;
2029;SDS011;1020;48.854;8.830;2023-08-01T11:54:07;6.10;;;1.13;;
2029;SDS011;1020;48.854;8.830;2023-08-01T11:56:36;1.87;;;1.13;;
2029;SDS011;1020;48.854;8.830;2023-08-01T11:59:09;1.23;;;1.10;;
2029;SDS011;1020;48.854;8.830;2023-08-01T12:01:38;1.40;;;0.90;;
2029;SDS011;1020;48.854;8.830;2023-08-01T12:04:05;1.57;;;1.30;;
2029;SDS011;1020;48.854;8.830;2023-08-01T12:06:33;2.03;;;1.07;;
2029;SDS011;1020;48.854;8.830;2023-08-01T12:09:05;1.37;;;1.27;;
2029;SDS011;1020;48.854;8.830;2023-08-01T12:11:34;1.10;;;1.00;;
2029;SDS011;1020;48.854;8.830;2023-08-01T12:14:02;2.17;;;1.10;;
2029;SDS011;1020;48.854;8.830;2023-08-01T12:16:30;1.47;;;1.20;;
2029;SDS011;1020;48.854;8.830;2023-08-01T12:18:57;2.50;;;1.20;;
2029;SDS011;1020;48.854;8.830;2023-08-01T12:21:24;1.57;;;0.93;;
2029;SDS011;1020;48.854;8.830;2023-08-01T12:23:52;1.37;;;1.27;;
2029;SDS011;1020;48.854;8.830;2023-08-01T12:26:19;1.30;;;1.20;;
2029;SDS011;1020;48.854;8.830;2023-08-01T12:28:46;1.13;;;1.10;;
2029;SDS011;1020;48.854;8.830;2023-08-01T12:31:15;1.40;;;1.20;;
2029;SDS011;1020;48.854;8.830;2023-08-01T12:33:43;1.70;;;1.33;;
2029;SDS011;1020;48.854;8.830;2023-08-01T12:36:10;2.30;;;1.43;;
2029;SDS011;1020;48.854;8.830;2023-08-01T12:38:37;1.90;;;1.20;;
2029;SDS011;1020;48.854;8.830;2023-08-01T12:41:05;1.13;;;1.00;;
2029;SDS011;1020;48.854;8.830;2023-08-01T12:43:32;2.00;;;1.30;;
2029;SDS011;1020;48.854;8.830;2023-08-01T12:45:59;1.33;;;1.10;;
2029;SDS011;1020;48.854;8.830;2023-08-01T12:48:26;1.53;;;1.17;;
2029;SDS011;1020;48.854;8.830;2023-08-01T12:50:53;1.27;;;1.17;;
2029;SDS011;1020;48.854;8.830;2023-08-01T12:53:20;1.33;;;1.20;;
2029;SDS011;1020;48.854;8.830;2023-08-01T12:55:47;1.33;;;1.23;;
2029;SDS011;1020;48.854;8.830;2023-08-01T12:58:17;1.00;;;0.90;;
2029;SDS011;1020;48.854;8.830;2023-08-01T13:00:44;1.50;;;1.40;;
2029;SDS011;1020;48.854;8.830;2023-08-01T13:03:11;1.50;;;1.40;;
2029;SDS011;1020;48.854;8.830;2023-08-01T13:05:39;4.47;;;1.50;;
2029;SDS011;1020;48.854;8.830;2023-08-01T13:08:06;1.60;;;1.50;;
2029;SDS011;1020;48.854;8.830;2023-08-01T13:10:34;1.80;;;1.27;;
2029;SDS011;1020;48.854;8.830;2023-08-01T13:13:02;2.40;;;1.20;;
2029;SDS011;1020;48.854;8.830;2023-08-01T13:15:30;1.37;;;1.13;;
2029;SDS011;1020;48.854;8.830;2023-08-01T13:17:57;1.53;;;1.43;;
2029;SDS011;1020;48.854;8.830;2023-08-01T13:20:24;1.43;;;1.33;;
2029;SDS011;1020;48.854;8.830;2023-08-01T13:22:51;1.83;;;1.40;;
2029;SDS011;1020;48.854;8.830;2023-08-01T13:25:17;1.30;;;1.20;;
2029;SDS011;1020;48.854;8.830;2023-08-01T13:27:45;1.83;;;1.13;;
2029;SDS011;1020;48.854;8.830;2023-08-01T13:30:11;1.40;;;1.30;;
2029;SDS011;1020;48.854;8.830;2023-08-01T13:32:40;1.87;;;1.27;;
2029;SDS011;1020;48.854;8.830;2023-08-01T13:35:07;1.23;;;1.10;;
2029;SDS011;1020;48.854;8.830;2023-08-01T13:37:34;1.43;;;1.33;;
2029;SDS011;1020;48.854;8.830;2023-08-01T13:40:01;2.10;;;1.57;;
2029;SDS011;1020;48.854;8.830;2023-08-01T13:42:28;2.63;;;1.70;;
2029;SDS011;1020;48.854;8.830;2023-08-01T13:44:55;1.50;;;1.40;;
2029;SDS011;1020;48.854;8.830;2023-08-01T13:47:22;1.30;;;1.23;;
2029;SDS011;1020;48.854;8.830;2023-08-01T13:49:50;1.30;;;1.20;;
2029;SDS011;1020;48.854;8.830;2023-08-01T13:52:17;2.13;;;1.00;;
2029;SDS011;1020;48.854;8.830;2023-08-01T13:54:44;1.07;;;1.00;;
2029;SDS011;1020;48.854;8.830;2023-08-01T13:57:10;2.80;;;1.57;;
2029;SDS011;1020;48.854;8.830;2023-08-01T13:59:37;1.50;;;1.20;;
2029;SDS011;1020;48.854;8.830;2023-08-01T14:02:04;1.60;;;1.30;;
2029;SDS011;1020;48.854;8.830;2023-08-01T14:04:31;1.57;;;1.33;;
2029;SDS011;1020;48.854;8.830;2023-08-01T14:06:59;1.60;;;1.07;;
2029;SDS011;1020;48.854;8.830;2023-08-01T14:09:27;1.50;;;1.40;;
2029;SDS011;1020;48.854;8.830;2023-08-01T14:11:57;4.00;;;1.10;;
2029;SDS011;1020;48.854;8.830;2023-08-01T14:14:24;1.97;;;1.43;;
2029;SDS011;1020;48.854;8.830;2023-08-01T14:16:51;2.47;;;1.43;;
2029;SDS011;1020;48.854;8.830;2023-08-01T14:19:17;1.20;;;1.00;;
2029;SDS011;1020;48.854;8.830;2023-08-01T14:21:44;6.53;;;1.70;;
2029;SDS011;1020;48.854;8.830;2023-08-01T14:24:13;2.83;;;1.37;;
2029;SDS011;1020;48.854;8.830;2023-08-01T14:26:39;1.43;;;1.23;;
2029;SDS011;1020;48.854;8.830;2023-08-01T14:29:07;1.37;;;1.00;;
2029;SDS011;1020;48.854;8.830;2023-08-01T14:31:33;1.00;;;0.90;;
2029;SDS011;1020;48.854;8.830;2023-08-01T14:34:00;1.00;;;1.00;;
2029;SDS011;1020;48.854;8.830;2023-08-01T14:36:27;1.53;;;1.40;;
2029;SDS011;1020;48.854;8.830;2023-08-01T14:38:54;1.60;;;1.07;;
2029;SDS011;1020;48.854;8.830;2023-08-01T14:41:23;0.83;;;0.80;;
2029;SDS011;1020;48.854;8.830;2023-08-01T14:43:49;1.33;;;1.20;;
2029;SDS011;1020;48.854;8.830;2023-08-01T14:46:16;2.20;;;1.20;;
2029;SDS011;1020;48.854;8.830;2023-08-01T14:48:43;2.27;;;1.60;;
2029;SDS011;1020;48.854;8.830;2023-08-01T14:51:11;1.40;;;1.30;;
2029;SDS011;1020;48.854;8.830;2023-08-01T14:53:38;1.40;;;1.30;;
2029;SDS011;1020;48.854;8.830;2023-08-01T14:56:04;2.67;;;1.33;;
2029;SDS011;1020;48.854;8.830;2023-08-01T14:58:34;1.77;;;1.37;;
2029;SDS011;1020;48.854;8.830;2023-08-01T15:01:04;2.10;;;1.23;;
2029;SDS011;1020;48.854;8.830;2023-08-01T15:03:31;1.20;;;1.20;;
2029;SDS011;1020;48.854;8.830;2023-08-01T15:06:04;1.63;;;1.23;;
2029;SDS011;1020;48.854;8.830;2023-08-01T15:08:31;1.40;;;1.30;;
2029;SDS011;1020;48.854;8.830;2023-08-01T15:11:01;1.43;;;1.30;;
2029;SDS011;1020;48.854;8.830;2023-08-01T15:13:29;1.33;;;1.20;;
2029;SDS011;1020;48.854;8.830;2023-08-01T15:15:57;2.90;;;1.20;;
2029;SDS011;1020;48.854;8.830;2023-08-01T15:18:24;1.40;;;1.30;;
2029;SDS011;1020;48.854;8.830;2023-08-01T15:20:51;1.37;;;1.23;;